Time;durP1;ratioP1;P1;durP2;ratioP2;P2;SDS_P1;SDS_P2;PMS_P1;PMS_P2;Temp;Humidity;BMP_temperature;BMP_pressure;BME280_temperature;BME280_humidity;BME280_pressure;Samples;Min_cycle;Max_cycle;Signal;HPM_P1;HPM_P2
2023/12/08 00:00:07;;;;;;;18.90;10.68;;;;;;;;;;5045386;28;20394;-82
2023/12/08 00:02:33;;;;;;;17.95;10.20;;;;;;;;;;5062719;28;20071;-83
2023/12/08 00:04:59;;;;;;;20.08;11.18;;;;;;;;;;5055908;28;20040;-82
2023/12/08 00:07:26;;;;;;;19.45;10.15;;;;;;;;;;5060509;28;20029;-82
2023/12/08 00:09:51;;;;;;;19.90;11.35;;;;;;;;;;5057436;28;20074;-82
2023/12/08 00:12:17;;;;;;;19.30;10.57;;;;;;;;;;5061986;28;20060;-82
2023/12/08 00:14:42;;;;;;;19.73;11.20;;;;;;;;;;5055832;28;20028;-83
2023/12/08 00:17:08;;;;;;;20.17;11.85;;;;;;;;;;5058133;28;20484;-83
2023/12/08 00:19:34;;;;;;;19.58;10.48;;;;;;;;;;5065379;28;20390;-83
2023/12/08 00:22:00;;;;;;;20.80;11.82;;;;;;;;;;5053093;28;20036;-82
2023/12/08 00:24:25;;;;;;;19.92;11.57;;;;;;;;;;5061638;28;20028;-83
2023/12/08 00:26:52;;;;;;;19.60;11.32;;;;;;;;;;5060205;28;20701;-83
2023/12/08 00:29:19;;;;;;;21.58;11.65;;;;;;;;;;5061932;28;20029;-83
2023/12/08 00:31:46;;;;;;;19.00;10.52;;;;;;;;;;5062989;28;20033;-83
2023/12/08 00:34:11;;;;;;;21.08;12.27;;;;;;;;;;5059706;28;20080;-83
2023/12/08 00:36:39;;;;;;;21.40;11.32;;;;;;;;;;5048740;28;20064;-83
2023/12/08 00:39:05;;;;;;;23.90;11.80;;;;;;;;;;5058846;28;20044;-83
2023/12/08 00:41:30;;;;;;;21.00;11.68;;;;;;;;;;5063236;28;20507;-83
2023/12/08 00:43:55;;;;;;;19.20;11.32;;;;;;;;;;5062634;28;20036;-82
2023/12/08 00:46:21;;;;;;;21.45;11.73;;;;;;;;;;5056021;28;20032;-83
2023/12/08 00:48:46;;;;;;;19.80;10.55;;;;;;;;;;5041627;28;20043;-83
2023/12/08 00:51:13;;;;;;;18.88;10.93;;;;;;;;;;5059147;28;20119;-82
2023/12/08 00:53:40;;;;;;;18.85;11.10;;;;;;;;;;5045890;28;20028;-83
2023/12/08 00:56:06;;;;;;;20.98;11.43;;;;;;;;;;5041742;28;20040;-83
2023/12/08 00:58:31;;;;;;;19.08;10.70;;;;;;;;;;5042976;28;20036;-81
2023/12/08 01:00:57;;;;;;;20.13;11.00;;;;;;;;;;5059026;28;20056;-83
2023/12/08 01:03:22;;;;;;;19.10;11.02;;;;;;;;;;5055770;28;20039;-83
2023/12/08 01:05:48;;;;;;;20.48;10.63;;;;;;;;;;5058232;28;20635;-83
2023/12/08 01:08:13;;;;;;;19.50;11.23;;;;;;;;;;5047380;28;20544;-82
2023/12/08 01:10:39;;;;;;;19.70;10.95;;;;;;;;;;5045224;28;20435;-83
2023/12/08 01:13:04;;;;;;;18.17;9.95;;;;;;;;;;5054657;28;20051;-83
2023/12/08 01:15:30;;;;;;;20.48;11.52;;;;;;;;;;5075666;28;20032;-82
2023/12/08 01:17:55;;;;;;;18.20;10.30;;;;;;;;;;5045749;28;20490;-83
2023/12/08 01:20:21;;;;;;;18.33;10.55;;;;;;;;;;5050012;28;20032;-83
2023/12/08 01:22:46;;;;;;;17.80;10.32;;;;;;;;;;5059942;28;20090;-83
2023/12/08 01:25:11;;;;;;;17.52;9.88;;;;;;;;;;5044751;28;20040;-83
2023/12/08 01:27:37;;;;;;;16.65;10.10;;;;;;;;;;5044393;28;20049;-83
2023/12/08 01:30:03;;;;;;;19.27;10.20;;;;;;;;;;5048033;28;20060;-82
2023/12/08 01:32:28;;;;;;;19.70;11.18;;;;;;;;;;5029385;28;20025;-83
2023/12/08 01:34:54;;;;;;;18.45;10.35;;;;;;;;;;5058082;28;20123;-83
2023/12/08 01:37:19;;;;;;;19.45;10.10;;;;;;;;;;5042438;28;20036;-82
2023/12/08 01:39:46;;;;;;;17.83;9.98;;;;;;;;;;5060921;28;20652;-83
2023/12/08 01:42:12;;;;;;;18.55;10.50;;;;;;;;;;5058155;28;20029;-82
2023/12/08 01:44:37;;;;;;;19.08;10.43;;;;;;;;;;5058718;28;20025;-83
2023/12/08 01:47:04;;;;;;;17.48;10.45;;;;;;;;;;5067857;28;20067;-82
2023/12/08 01:49:30;;;;;;;16.38;9.98;;;;;;;;;;5067476;28;20051;-83
2023/12/08 01:51:55;;;;;;;17.20;10.23;;;;;;;;;;5050457;28;20462;-82
2023/12/08 01:54:21;;;;;;;19.33;10.30;;;;;;;;;;5051952;28;20038;-83
2023/12/08 01:56:46;;;;;;;18.15;9.57;;;;;;;;;;5049337;28;20029;-83
2023/12/08 01:59:12;;;;;;;18.70;10.57;;;;;;;;;;5083131;28;20036;-82
2023/12/08 02:01:38;;;;;;;15.95;9.85;;;;;;;;;;5040187;28;20086;-81
2023/12/08 02:04:05;;;;;;;16.90;10.13;;;;;;;;;;5062202;28;20036;-83
2023/12/08 02:06:30;;;;;;;17.10;10.13;;;;;;;;;;5050352;28;20054;-82
2023/12/08 02:08:57;;;;;;;17.50;9.85;;;;;;;;;;5062173;28;20089;-82
2023/12/08 02:11:23;;;;;;;18.45;10.32;;;;;;;;;;5057916;28;20036;-83
2023/12/08 02:13:49;;;;;;;18.13;9.88;;;;;;;;;;5047714;28;20495;-83
2023/12/08 02:16:28;;;;;;;16.90;10.13;;;;;;;;;;5043740;28;20103;-83
2023/12/08 02:18:55;;;;;;;17.98;10.30;;;;;;;;;;5056872;28;20043;-82
2023/12/08 02:21:20;;;;;;;18.92;9.93;;;;;;;;;;5055655;28;20047;-82
2023/12/08 02:23:49;;;;;;;16.65;9.65;;;;;;;;;;5030880;28;20059;-82
2023/12/08 02:26:16;;;;;;;16.65;9.77;;;;;;;;;;5060349;28;20116;-82
2023/12/08 02:28:43;;;;;;;18.85;10.43;;;;;;;;;;5045188;28;20032;-82
2023/12/08 02:31:16;;;;;;;19.10;10.77;;;;;;;;;;5075848;28;20024;-82
2023/12/08 02:33:45;;;;;;;19.13;11.30;;;;;;;;;;5058902;28;20115;-82
2023/12/08 02:36:13;;;;;;;19.17;10.65;;;;;;;;;;5059371;28;20426;-82
2023/12/08 02:38:39;;;;;;;18.33;10.40;;;;;;;;;;5056937;28;20099;-80
2023/12/08 02:41:05;;;;;;;18.23;10.52;;;;;;;;;;5056799;28;20119;-80
2023/12/08 02:43:30;;;;;;;19.25;10.45;;;;;;;;;;5054006;28;20112;-79
2023/12/08 02:45:56;;;;;;;18.73;10.63;;;;;;;;;;5054599;28;20036;-80
2023/12/08 02:48:21;;;;;;;18.90;10.65;;;;;;;;;;5064079;28;20090;-79
2023/12/08 02:50:47;;;;;;;19.55;10.18;;;;;;;;;;5043320;28;20036;-80
2023/12/08 02:53:12;;;;;;;18.23;10.35;;;;;;;;;;5052245;28;20028;-80
2023/12/08 02:55:38;;;;;;;18.67;10.77;;;;;;;;;;5035957;28;20510;-79
2023/12/08 02:58:04;;;;;;;20.08;10.40;;;;;;;;;;5063591;28;20123;-79
2023/12/08 03:00:29;;;;;;;19.48;10.27;;;;;;;;;;5053854;28;20120;-80
2023/12/08 03:02:55;;;;;;;19.38;10.85;;;;;;;;;;5065230;28;20028;-79
2023/12/08 03:05:20;;;;;;;17.65;9.82;;;;;;;;;;5054546;28;20394;-80
2023/12/08 03:07:46;;;;;;;18.20;10.20;;;;;;;;;;5049128;28;20029;-80
2023/12/08 03:10:12;;;;;;;19.27;10.25;;;;;;;;;;5036070;28;20025;-79
2023/12/08 03:12:38;;;;;;;17.67;10.48;;;;;;;;;;5066052;28;20508;-80
2023/12/08 03:15:04;;;;;;;20.60;11.05;;;;;;;;;;5055024;28;20032;-79
2023/12/08 03:17:29;;;;;;;17.88;9.75;;;;;;;;;;5067307;28;20035;-80
2023/12/08 03:19:55;;;;;;;18.95;10.60;;;;;;;;;;5063246;28;20033;-79
2023/12/08 03:22:20;;;;;;;18.98;10.45;;;;;;;;;;5050201;28;20485;-79
2023/12/08 03:24:46;;;;;;;19.55;10.45;;;;;;;;;;5069626;28;20085;-79
2023/12/08 03:27:11;;;;;;;16.38;9.75;;;;;;;;;;5050901;28;20158;-79
2023/12/08 03:29:40;;;;;;;20.15;10.55;;;;;;;;;;5048997;28;20076;-79
2023/12/08 03:32:06;;;;;;;18.73;10.35;;;;;;;;;;5048373;28;20025;-79
2023/12/08 03:34:32;;;;;;;18.38;11.07;;;;;;;;;;5067917;28;20167;-79
2023/12/08 03:36:57;;;;;;;18.05;10.68;;;;;;;;;;5035866;28;20119;-79
2023/12/08 03:39:22;;;;;;;17.98;10.55;;;;;;;;;;5038983;28;20028;-79
2023/12/08 03:41:48;;;;;;;18.95;10.73;;;;;;;;;;5071348;28;20028;-80
2023/12/08 03:44:14;;;;;;;17.33;10.20;;;;;;;;;;5069725;28;20409;-79
2023/12/08 03:46:42;;;;;;;16.77;10.50;;;;;;;;;;5079945;28;20020;-80
2023/12/08 03:49:08;;;;;;;19.58;10.13;;;;;;;;;;5070038;28;20029;-81
2023/12/08 03:51:33;;;;;;;16.35;10.20;;;;;;;;;;5066372;28;20016;-80
2023/12/08 03:53:59;;;;;;;19.52;10.95;;;;;;;;;;5066254;28;20501;-81
2023/12/08 03:56:24;;;;;;;19.33;10.75;;;;;;;;;;5047899;28;20040;-81
2023/12/08 03:58:49;;;;;;;18.38;10.98;;;;;;;;;;5034731;28;21269;-81
2023/12/08 04:01:19;;;;;;;17.27;10.45;;;;;;;;;;5053015;28;20123;-81
2023/12/08 04:03:44;;;;;;;19.15;10.35;;;;;;;;;;5051164;28;20044;-81
2023/12/08 04:06:10;;;;;;;19.45;11.43;;;;;;;;;;5053143;28;20029;-82
2023/12/08 04:08:35;;;;;;;20.77;11.35;;;;;;;;;;5053124;28;20032;-82
2023/12/08 04:11:01;;;;;;;20.92;11.38;;;;;;;;;;5059746;28;20036;-82
2023/12/08 04:13:26;;;;;;;18.98;10.88;;;;;;;;;;5047948;28;20032;-81
2023/12/08 04:15:52;;;;;;;18.27;11.02;;;;;;;;;;5064935;28;20024;-81
2023/12/08 04:18:18;;;;;;;17.98;10.95;;;;;;;;;;5053731;28;20045;-82
2023/12/08 04:20:43;;;;;;;17.90;9.90;;;;;;;;;;5047154;28;20029;-81
2023/12/08 04:23:09;;;;;;;19.30;10.35;;;;;;;;;;5036065;28;20090;-81
2023/12/08 04:25:34;;;;;;;18.88;10.93;;;;;;;;;;5052476;28;20040;-82
2023/12/08 04:28:00;;;;;;;20.27;10.70;;;;;;;;;;5062366;28;20033;-81
2023/12/08 04:30:25;;;;;;;18.95;10.48;;;;;;;;;;5052435;28;20425;-82
2023/12/08 04:32:53;;;;;;;17.73;11.05;;;;;;;;;;5064999;28;20376;-81
2023/12/08 04:35:18;;;;;;;17.35;10.52;;;;;;;;;;5036289;28;20119;-81
2023/12/08 04:37:44;;;;;;;23.58;11.35;;;;;;;;;;5048375;28;20119;-82
2023/12/08 04:40:10;;;;;;;17.92;10.35;;;;;;;;;;5058663;28;20494;-81
2023/12/08 04:42:36;;;;;;;18.05;10.35;;;;;;;;;;5061116;28;20036;-81
2023/12/08 04:45:03;;;;;;;18.52;10.82;;;;;;;;;;5049424;28;20435;-81
2023/12/08 04:47:28;;;;;;;20.00;10.88;;;;;;;;;;5049269;28;20470;-80
2023/12/08 04:49:54;;;;;;;19.50;11.23;;;;;;;;;;5049215;28;20040;-80
2023/12/08 04:52:19;;;;;;;19.13;10.77;;;;;;;;;;5049282;28;20049;-80
2023/12/08 04:54:45;;;;;;;17.58;10.65;;;;;;;;;;5061161;28;20063;-80
2023/12/08 04:57:10;;;;;;;19.25;10.73;;;;;;;;;;5066181;28;20074;-81
2023/12/08 04:59:37;;;;;;;17.92;10.02;;;;;;;;;;5066265;28;20036;-82
2023/12/08 05:02:03;;;;;;;22.38;11.32;;;;;;;;;;5060667;28;20036;-82
2023/12/08 05:04:28;;;;;;;17.92;10.23;;;;;;;;;;5073694;28;20029;-81
2023/12/08 05:06:53;;;;;;;18.75;10.85;;;;;;;;;;5049183;28;20051;-81
2023/12/08 05:09:19;;;;;;;19.25;10.40;;;;;;;;;;5045064;28;20089;-81
2023/12/08 05:11:44;;;;;;;17.23;9.85;;;;;;;;;;5048177;28;20422;-81
2023/12/08 05:14:10;;;;;;;17.75;10.35;;;;;;;;;;5060622;28;20402;-82
2023/12/08 05:16:35;;;;;;;20.83;9.82;;;;;;;;;;5042836;28;20040;-81
2023/12/08 05:19:00;;;;;;;17.00;10.05;;;;;;;;;;5048812;28;20025;-81
2023/12/08 05:21:26;;;;;;;15.85;9.43;;;;;;;;;;5044179;28;20044;-81
2023/12/08 05:23:51;;;;;;;20.73;10.40;;;;;;;;;;5054317;28;20127;-81
2023/12/08 05:26:17;;;;;;;17.85;11.10;;;;;;;;;;5045143;28;20033;-80
2023/12/08 05:28:42;;;;;;;18.73;10.93;;;;;;;;;;5052066;28;20039;-81
2023/12/08 05:31:07;;;;;;;20.48;10.90;;;;;;;;;;5054043;28;20038;-82
2023/12/08 05:33:33;;;;;;;19.92;9.38;;;;;;;;;;5045994;28;20178;-82
2023/12/08 05:35:58;;;;;;;15.85;9.85;;;;;;;;;;5058300;28;20024;-82
2023/12/08 05:38:24;;;;;;;15.85;9.15;;;;;;;;;;5059278;28;20398;-82
2023/12/08 05:40:49;;;;;;;17.00;9.77;;;;;;;;;;5055162;28;20047;-82
2023/12/08 05:43:14;;;;;;;18.02;10.02;;;;;;;;;;5054844;28;20119;-82
2023/12/08 05:45:40;;;;;;;19.70;9.63;;;;;;;;;;5043546;28;20398;-81
2023/12/08 05:48:05;;;;;;;16.98;10.15;;;;;;;;;;5054674;28;20413;-81
2023/12/08 05:50:31;;;;;;;17.17;9.93;;;;;;;;;;5045898;28;20177;-82
2023/12/08 05:52:56;;;;;;;20.10;10.65;;;;;;;;;;5058433;28;20126;-81
2023/12/08 05:55:22;;;;;;;15.68;9.57;;;;;;;;;;5061052;28;20482;-81
2023/12/08 05:57:48;;;;;;;18.00;10.10;;;;;;;;;;5059977;28;20048;-81
2023/12/08 06:00:17;;;;;;;15.77;9.65;;;;;;;;;;5042584;28;20551;-82
2023/12/08 06:02:43;;;;;;;17.38;9.73;;;;;;;;;;5034653;28;20025;-82
2023/12/08 06:05:09;;;;;;;15.93;9.25;;;;;;;;;;5039381;28;20041;-82
2023/12/08 06:07:35;;;;;;;18.10;10.13;;;;;;;;;;5054131;28;20033;-81
2023/12/08 06:10:00;;;;;;;16.90;10.18;;;;;;;;;;5052113;28;20033;-81
2023/12/08 06:12:26;;;;;;;15.98;9.00;;;;;;;;;;5046227;28;20052;-82
2023/12/08 06:14:53;;;;;;;19.88;9.73;;;;;;;;;;5055047;28;20101;-81
2023/12/08 06:17:19;;;;;;;15.27;9.30;;;;;;;;;;5052959;28;20556;-82
2023/12/08 06:19:44;;;;;;;16.23;9.77;;;;;;;;;;5041615;28;20045;-82
2023/12/08 06:22:09;;;;;;;15.30;8.85;;;;;;;;;;5058397;28;20024;-82
2023/12/08 06:24:35;;;;;;;16.70;9.18;;;;;;;;;;5048077;28;20493;-81
2023/12/08 06:27:00;;;;;;;14.93;8.70;;;;;;;;;;5048651;28;20040;-81
2023/12/08 06:29:25;;;;;;;16.02;9.10;;;;;;;;;;5050150;28;20029;-82
2023/12/08 06:31:51;;;;;;;18.33;9.98;;;;;;;;;;5082080;28;20091;-82
2023/12/08 06:34:16;;;;;;;16.30;9.55;;;;;;;;;;5064771;28;20028;-82
2023/12/08 06:36:45;;;;;;;14.30;9.25;;;;;;;;;;5060255;28;20059;-82
2023/12/08 06:39:12;;;;;;;18.58;9.82;;;;;;;;;;5058504;28;20025;-81
2023/12/08 06:41:38;;;;;;;16.52;9.43;;;;;;;;;;5063258;28;20036;-81
2023/12/08 06:44:04;;;;;;;15.27;8.73;;;;;;;;;;5058943;28;20115;-82
2023/12/08 06:46:29;;;;;;;16.70;9.10;;;;;;;;;;5061807;28;20112;-82
2023/12/08 06:48:55;;;;;;;17.35;9.60;;;;;;;;;;5071640;28;20119;-82
2023/12/08 06:51:20;;;;;;;17.73;8.80;;;;;;;;;;5065253;28;20087;-82
2023/12/08 06:53:46;;;;;;;19.45;9.60;;;;;;;;;;5083086;28;20029;-82
2023/12/08 06:56:11;;;;;;;14.63;8.82;;;;;;;;;;5084677;28;20032;-81
2023/12/08 06:58:37;;;;;;;16.45;9.20;;;;;;;;;;5068080;28;20049;-82
2023/12/08 07:01:02;;;;;;;15.50;8.90;;;;;;;;;;5055124;28;20127;-82
2023/12/08 07:03:28;;;;;;;17.58;9.73;;;;;;;;;;5068693;28;20518;-82
2023/12/08 07:05:53;;;;;;;17.45;9.35;;;;;;;;;;5042334;28;20128;-81
2023/12/08 07:08:19;;;;;;;18.50;9.45;;;;;;;;;;5066212;28;20437;-81
2023/12/08 07:10:59;;;;;;;18.15;9.90;;;;;;;;;;5133990;27;20466;-82
2023/12/08 07:13:24;;;;;;;18.42;10.75;;;;;;;;;;5114034;27;20153;-83
2023/12/08 07:15:50;;;;;;;21.42;9.82;;;;;;;;;;5088044;28;20481;-83
2023/12/08 07:18:17;;;;;;;17.98;9.73;;;;;;;;;;5089598;28;20039;-82
2023/12/08 07:20:42;;;;;;;18.52;10.27;;;;;;;;;;5088079;28;20031;-82
2023/12/08 07:23:08;;;;;;;19.15;10.25;;;;;;;;;;5091525;28;20114;-82
2023/12/08 07:25:33;;;;;;;16.58;9.75;;;;;;;;;;5116786;27;20031;-82
2023/12/08 07:27:59;;;;;;;19.45;9.40;;;;;;;;;;5103769;28;20055;-82
2023/12/08 07:30:24;;;;;;;17.50;9.05;;;;;;;;;;5104701;28;20106;-82
2023/12/08 07:32:51;;;;;;;18.17;9.75;;;;;;;;;;5095267;28;20085;-82
2023/12/08 07:35:16;;;;;;;17.33;9.63;;;;;;;;;;5084346;28;20497;-82
2023/12/08 07:37:42;;;;;;;19.50;9.30;;;;;;;;;;5101974;28;20036;-82
2023/12/08 07:40:09;;;;;;;18.67;10.20;;;;;;;;;;5106815;28;20443;-82
2023/12/08 07:42:35;;;;;;;20.58;10.30;;;;;;;;;;5107319;28;20042;-82
2023/12/08 07:45:00;;;;;;;18.40;10.27;;;;;;;;;;5104776;28;20042;-82
2023/12/08 07:47:27;;;;;;;16.80;10.02;;;;;;;;;;5101326;27;20028;-82
2023/12/08 07:49:52;;;;;;;18.10;9.32;;;;;;;;;;5085238;27;20036;-82
2023/12/08 07:52:17;;;;;;;18.55;10.13;;;;;;;;;;5085327;28;20034;-82
2023/12/08 07:54:43;;;;;;;22.75;10.50;;;;;;;;;;5087426;28;20081;-82
2023/12/08 07:57:08;;;;;;;20.50;10.15;;;;;;;;;;5094089;28;20080;-83
2023/12/08 07:59:34;;;;;;;18.25;10.60;;;;;;;;;;5084947;28;20020;-82
2023/12/08 08:01:59;;;;;;;17.52;10.40;;;;;;;;;;5116183;28;20043;-82
2023/12/08 08:04:25;;;;;;;23.02;10.25;;;;;;;;;;5109340;28;20165;-82
2023/12/08 08:06:51;;;;;;;18.48;10.35;;;;;;;;;;5088738;28;20511;-82
2023/12/08 08:09:17;;;;;;;18.58;10.55;;;;;;;;;;5075712;28;20028;-82
2023/12/08 08:11:43;;;;;;;21.55;10.50;;;;;;;;;;5075105;28;20028;-83
2023/12/08 08:14:08;;;;;;;23.35;11.02;;;;;;;;;;5099120;28;20474;-82
2023/12/08 08:16:34;;;;;;;19.98;11.32;;;;;;;;;;5112340;28;20478;-81
2023/12/08 08:18:59;;;;;;;20.58;10.38;;;;;;;;;;5096768;28;20043;-81
2023/12/08 08:21:25;;;;;;;19.48;10.15;;;;;;;;;;5089135;28;20028;-81
2023/12/08 08:23:50;;;;;;;19.67;10.85;;;;;;;;;;5064127;28;20082;-80
2023/12/08 08:26:16;;;;;;;20.58;10.57;;;;;;;;;;5067559;28;20402;-81
2023/12/08 08:28:42;;;;;;;20.85;10.63;;;;;;;;;;5088112;28;20040;-82
2023/12/08 08:31:09;;;;;;;20.92;10.73;;;;;;;;;;5075503;28;20044;-83
2023/12/08 08:33:34;;;;;;;21.98;11.10;;;;;;;;;;5068781;28;20456;-83
2023/12/08 08:36:00;;;;;;;23.55;11.25;;;;;;;;;;5071596;28;20033;-83
2023/12/08 08:38:25;;;;;;;24.17;10.93;;;;;;;;;;5079708;28;20027;-82
2023/12/08 08:40:50;;;;;;;20.80;10.90;;;;;;;;;;5080978;28;20549;-83
2023/12/08 08:43:16;;;;;;;23.90;11.50;;;;;;;;;;5077314;28;20520;-83
2023/12/08 08:45:41;;;;;;;24.08;10.80;;;;;;;;;;5093414;28;20040;-83
2023/12/08 08:48:07;;;;;;;26.67;11.68;;;;;;;;;;5092464;28;20123;-82
2023/12/08 08:50:32;;;;;;;23.05;12.13;;;;;;;;;;5073537;28;20067;-83
2023/12/08 08:52:59;;;;;;;26.20;11.73;;;;;;;;;;5055859;28;20124;-83
2023/12/08 08:55:27;;;;;;;27.30;12.65;;;;;;;;;;5052400;28;20764;-83
2023/12/08 08:57:53;;;;;;;25.80;12.63;;;;;;;;;;5088688;28;20123;-83
2023/12/08 09:00:21;;;;;;;22.38;12.07;;;;;;;;;;5092149;28;20027;-83
2023/12/08 09:02:51;;;;;;;21.73;12.27;;;;;;;;;;5076131;27;20036;-84
2023/12/08 09:05:17;;;;;;;26.45;11.70;;;;;;;;;;5086545;28;20077;-83
2023/12/08 09:07:43;;;;;;;28.10;13.10;;;;;;;;;;5078514;28;20038;-83
2023/12/08 09:10:09;;;;;;;26.00;12.07;;;;;;;;;;5075563;28;20024;-83
2023/12/08 09:12:34;;;;;;;30.02;13.35;;;;;;;;;;5087429;28;20040;-83
2023/12/08 09:15:00;;;;;;;28.33;12.48;;;;;;;;;;5083584;28;20032;-83
2023/12/08 09:17:25;;;;;;;29.98;13.75;;;;;;;;;;5074663;28;20088;-83
2023/12/08 09:19:51;;;;;;;31.08;13.50;;;;;;;;;;5056177;28;20035;-83
2023/12/08 09:22:16;;;;;;;25.50;12.48;;;;;;;;;;5061974;28;20578;-83
2023/12/08 09:24:41;;;;;;;32.17;14.98;;;;;;;;;;5057703;28;20119;-83
2023/12/08 09:27:07;;;;;;;32.55;14.52;;;;;;;;;;5071274;28;20304;-82
2023/12/08 09:29:32;;;;;;;26.15;13.65;;;;;;;;;;5055435;28;20732;-82
2023/12/08 09:31:58;;;;;;;36.63;14.43;;;;;;;;;;5064448;28;20036;-82
2023/12/08 09:34:23;;;;;;;29.85;14.27;;;;;;;;;;5064412;28;20036;-80
2023/12/08 09:36:49;;;;;;;31.77;14.48;;;;;;;;;;5070040;28;20028;-83
2023/12/08 09:39:14;;;;;;;41.58;16.20;;;;;;;;;;5070908;28;20043;-83
2023/12/08 09:41:40;;;;;;;38.63;15.80;;;;;;;;;;5074504;28;20429;-83
2023/12/08 09:44:11;;;;;;;41.13;15.20;;;;;;;;;;5067465;28;20070;-83
2023/12/08 09:46:39;;;;;;;30.33;14.70;;;;;;;;;;5077647;28;20027;-83
2023/12/08 09:49:11;;;;;;;38.58;16.17;;;;;;;;;;5088582;28;20080;-83
2023/12/08 09:51:38;;;;;;;40.17;16.37;;;;;;;;;;5092692;28;20028;-82
2023/12/08 09:54:04;;;;;;;35.92;15.38;;;;;;;;;;5060827;28;20284;-83
2023/12/08 09:56:31;;;;;;;33.80;15.80;;;;;;;;;;5064710;28;20478;-82
2023/12/08 09:58:57;;;;;;;35.55;15.98;;;;;;;;;;5085695;28;20029;-83
2023/12/08 10:01:23;;;;;;;35.85;15.60;;;;;;;;;;5074404;28;20063;-82
2023/12/08 10:03:48;;;;;;;42.65;16.40;;;;;;;;;;5062500;28;20077;-83
2023/12/08 10:06:14;;;;;;;37.83;16.65;;;;;;;;;;5091089;28;20102;-82
2023/12/08 10:08:41;;;;;;;36.58;16.58;;;;;;;;;;5069925;28;20077;-83
2023/12/08 10:11:06;;;;;;;36.08;15.38;;;;;;;;;;5075857;28;20028;-82
2023/12/08 10:13:32;;;;;;;39.50;17.17;;;;;;;;;;5055350;28;20042;-83
2023/12/08 10:15:59;;;;;;;36.40;15.63;;;;;;;;;;5095348;28;20040;-82
2023/12/08 10:18:25;;;;;;;40.10;14.90;;;;;;;;;;5080067;28;20027;-83
2023/12/08 10:20:52;;;;;;;37.75;15.18;;;;;;;;;;5099521;28;20043;-83
2023/12/08 10:23:20;;;;;;;37.45;16.77;;;;;;;;;;5068843;28;20025;-83
2023/12/08 10:25:47;;;;;;;29.90;15.35;;;;;;;;;;5102865;27;20027;-82
2023/12/08 10:28:13;;;;;;;36.63;16.02;;;;;;;;;;5085620;28;20482;-83
2023/12/08 10:30:45;;;;;;;35.00;13.80;;;;;;;;;;5096149;28;20024;-83
2023/12/08 10:33:20;;;;;;;34.15;13.75;;;;;;;;;;5085676;28;20441;-82
2023/12/08 10:35:46;;;;;;;32.90;14.10;;;;;;;;;;5093180;28;20035;-83
2023/12/08 10:38:12;;;;;;;37.33;14.40;;;;;;;;;;5092251;28;20083;-83
2023/12/08 10:40:45;;;;;;;42.70;15.35;;;;;;;;;;5088149;28;20034;-83
2023/12/08 10:43:10;;;;;;;30.90;13.20;;;;;;;;;;5088456;28;20046;-83
2023/12/08 10:45:36;;;;;;;29.63;12.00;;;;;;;;;;5090744;28;20032;-83
2023/12/08 10:48:03;;;;;;;28.70;12.25;;;;;;;;;;5089953;28;20443;-81
2023/12/08 10:50:29;;;;;;;30.35;12.73;;;;;;;;;;5059547;28;20035;-82
2023/12/08 10:52:56;;;;;;;31.35;12.65;;;;;;;;;;5069242;28;20120;-82
2023/12/08 10:55:21;;;;;;;30.20;12.90;;;;;;;;;;5058697;28;20088;-81
2023/12/08 10:57:50;;;;;;;31.88;12.27;;;;;;;;;;5087533;28;20436;-82
2023/12/08 11:00:18;;;;;;;35.28;11.98;;;;;;;;;;5077034;28;20028;-82
2023/12/08 11:02:49;;;;;;;32.78;12.02;;;;;;;;;;5060807;28;20031;-82
2023/12/08 11:05:53;;;;;;;31.27;11.80;;;;;;;;;;5070917;28;20080;-81
2023/12/08 11:08:18;;;;;;;;;;;;;;;;;;5068981;28;20040;-82
2023/12/08 11:10:46;;;;;;;29.73;11.45;;;;;;;;;;5079417;28;19987;-82
2023/12/08 11:13:24;;;;;;;30.60;11.98;;;;;;;;;;5078311;28;20127;-81
2023/12/08 11:16:08;;;;;;;30.65;11.65;;;;;;;;;;5077222;28;20028;-82
2023/12/08 11:18:36;;;;;;;32.17;12.25;;;;;;;;;;5085245;28;20021;-82
2023/12/08 11:21:05;;;;;;;33.08;11.60;;;;;;;;;;5077058;28;20485;-82
2023/12/08 11:23:31;;;;;;;35.13;12.30;;;;;;;;;;5078406;28;20039;-82
2023/12/08 11:26:07;;;;;;;33.97;12.32;;;;;;;;;;5075180;28;20032;-82
2023/12/08 11:28:42;;;;;;;33.22;11.50;;;;;;;;;;5075490;28;20034;-82
2023/12/08 11:31:44;;;;;;;36.30;12.85;;;;;;;;;;5075524;28;20020;-81
2023/12/08 11:34:25;;;;;;;32.97;11.90;;;;;;;;;;5079421;28;20029;-81
2023/12/08 11:36:50;;;;;;;40.05;13.15;;;;;;;;;;5083788;28;20031;-81
2023/12/08 11:39:43;;;;;;;36.50;13.32;;;;;;;;;;5074159;28;20440;-81
2023/12/08 11:42:10;;;;;;;41.07;13.70;;;;;;;;;;5060735;28;20040;-82
2023/12/08 11:44:41;;;;;;;35.50;12.52;;;;;;;;;;5065494;28;20111;-82
2023/12/08 11:47:07;;;;;;;39.80;12.98;;;;;;;;;;5075333;28;20174;-82
2023/12/08 11:49:36;;;;;;;38.30;12.93;;;;;;;;;;5078118;28;20032;-82
2023/12/08 11:52:14;;;;;;;38.58;12.73;;;;;;;;;;5083931;28;20031;-81
2023/12/08 11:55:21;;;;;;;39.35;12.00;;;;;;;;;;5066561;28;20039;-81
2023/12/08 11:57:58;;;;;;;37.45;12.90;;;;;;;;;;5072735;28;20020;-82
2023/12/08 12:00:25;;;;;;;40.38;12.95;;;;;;;;;;5090709;28;20016;-82
2023/12/08 12:02:52;;;;;;;42.58;13.65;;;;;;;;;;5069066;28;20036;-82
2023/12/08 12:05:17;;;;;;;37.35;13.30;;;;;;;;;;5086582;28;20505;-82
2023/12/08 12:07:51;;;;;;;36.10;12.50;;;;;;;;;;5067289;28;20040;-81
2023/12/08 12:10:30;;;;;;;39.38;13.85;;;;;;;;;;5087444;28;20027;-81
2023/12/08 12:13:03;;;;;;;39.75;13.00;;;;;;;;;;5083043;28;20034;-82
2023/12/08 12:15:30;;;;;;;47.90;13.57;;;;;;;;;;5078833;28;20031;-81
2023/12/08 12:17:56;;;;;;;40.35;12.98;;;;;;;;;;5073127;28;20044;-81
2023/12/08 12:20:22;;;;;;;41.35;13.48;;;;;;;;;;5078881;28;20036;-81
2023/12/08 12:22:48;;;;;;;43.85;13.38;;;;;;;;;;5078941;28;20042;-81
2023/12/08 12:25:13;;;;;;;46.40;14.02;;;;;;;;;;5074980;28;20089;-81
2023/12/08 12:27:46;;;;;;;46.63;14.18;;;;;;;;;;5072668;28;20390;-81
2023/12/08 12:30:12;;;;;;;;;;;;;;;;;;5070690;28;20035;-82
2023/12/08 12:32:38;;;;;;;44.78;13.35;;;;;;;;;;5062193;28;20310;-82
2023/12/08 12:35:05;;;;;;;50.05;16.75;;;;;;;;;;5080502;28;20501;-82
2023/12/08 12:37:30;;;;;;;47.13;15.15;;;;;;;;;;5085696;28;20035;-81
2023/12/08 12:39:56;;;;;;;50.13;15.23;;;;;;;;;;5057405;28;20427;-81
2023/12/08 12:42:23;;;;;;;47.80;14.75;;;;;;;;;;5077920;28;20036;-81
2023/12/08 12:44:49;;;;;;;47.22;14.82;;;;;;;;;;5078386;28;20036;-81
2023/12/08 12:47:21;;;;;;;45.67;14.80;;;;;;;;;;5088315;28;20043;-82
2023/12/08 12:50:07;;;;;;;47.45;14.65;;;;;;;;;;5081640;28;20027;-81
2023/12/08 12:52:38;;;;;;;43.72;14.05;;;;;;;;;;5077242;28;20040;-82
2023/12/08 12:55:24;;;;;;;50.25;13.73;;;;;;;;;;5074449;28;20119;-81
2023/12/08 12:57:50;;;;;;;50.25;12.70;;;;;;;;;;5078692;28;20058;-81
2023/12/08 13:00:37;;;;;;;44.45;13.27;;;;;;;;;;5075833;28;20030;-81
2023/12/08 13:03:10;;;;;;;47.05;13.75;;;;;;;;;;5084934;27;20040;-81
2023/12/08 13:05:54;;;;;;;46.55;13.98;;;;;;;;;;5071631;28;20537;-81
2023/12/08 13:08:20;;;;;;;51.70;14.38;;;;;;;;;;5073084;28;20155;-84
2023/12/08 13:10:46;;;;;;;46.70;15.65;;;;;;;;;;5068356;28;20051;-84
2023/12/08 13:13:12;;;;;;;50.45;14.45;;;;;;;;;;5039151;28;21271;-84
2023/12/08 13:15:38;;;;;;;51.22;15.10;;;;;;;;;;5062941;28;20032;-84
2023/12/08 13:18:04;;;;;;;43.03;13.90;;;;;;;;;;5073862;28;20055;-84
2023/12/08 13:20:30;;;;;;;47.20;13.90;;;;;;;;;;5069942;28;20127;-84
2023/12/08 13:22:56;;;;;;;46.10;12.85;;;;;;;;;;5075321;28;20062;-84
2023/12/08 13:25:22;;;;;;;54.90;14.18;;;;;;;;;;5070968;28;20406;-87
2023/12/08 13:27:47;;;;;;;53.95;15.13;;;;;;;;;;5052944;28;21901;-84
2023/12/08 13:30:13;;;;;;;52.20;14.35;;;;;;;;;;5071093;28;20035;-84
2023/12/08 13:32:38;;;;;;;51.50;15.70;;;;;;;;;;5053852;28;20044;-84
2023/12/08 13:35:06;;;;;;;60.17;15.07;;;;;;;;;;5074333;28;20088;-84
2023/12/08 13:37:33;;;;;;;63.40;14.50;;;;;;;;;;5052864;28;20031;-85
2023/12/08 13:39:59;;;;;;;50.30;14.57;;;;;;;;;;5053691;28;20063;-84
2023/12/08 13:42:26;;;;;;;49.53;13.98;;;;;;;;;;5069882;28;20327;-84
2023/12/08 13:44:52;;;;;;;49.83;14.52;;;;;;;;;;5056182;28;20044;-86
2023/12/08 13:47:18;;;;;;;56.53;14.85;;;;;;;;;;5068757;28;20275;-84
2023/12/08 13:49:47;;;;;;;55.03;14.65;;;;;;;;;;5070374;28;20479;-84
2023/12/08 13:52:15;;;;;;;52.58;14.23;;;;;;;;;;5066450;28;20039;-84
2023/12/08 13:54:41;;;;;;;53.97;14.23;;;;;;;;;;5072406;28;20165;-84
2023/12/08 13:57:08;;;;;;;46.80;13.73;;;;;;;;;;5071696;28;20518;-83
2023/12/08 13:59:33;;;;;;;55.88;14.68;;;;;;;;;;5070620;28;20087;-83
2023/12/08 14:02:01;;;;;;;49.53;13.40;;;;;;;;;;5067927;28;20400;-84
2023/12/08 14:04:26;;;;;;;45.33;13.88;;;;;;;;;;5073230;28;20024;-84
2023/12/08 14:06:52;;;;;;;42.25;12.95;;;;;;;;;;5067791;28;20047;-82
2023/12/08 14:09:18;;;;;;;50.22;13.40;;;;;;;;;;5064431;28;20036;-81
2023/12/08 14:11:44;;;;;;;52.35;13.27;;;;;;;;;;5070728;28;20032;-82
2023/12/08 14:14:10;;;;;;;46.50;14.25;;;;;;;;;;5069084;28;20077;-82
2023/12/08 14:16:38;;;;;;;51.47;13.30;;;;;;;;;;5065251;28;20047;-82
2023/12/08 14:19:03;;;;;;;43.65;13.43;;;;;;;;;;5072633;28;20031;-84